sensor_id;sensor_type;location;lat;lon;timestamp;temperature;humidity
13245;DHT22;6689;53.400;12.486;2024-01-16T00:00:37;0.40;1.00
13245;DHT22;6689;53.400;12.486;2024-01-16T00:03:05;0.30;1.00
13245;DHT22;6689;53.400;12.486;2024-01-16T00:05:32;0.30;1.00
13245;DHT22;6689;53.400;12.486;2024-01-16T00:08:00;0.20;1.00
13245;DHT22;6689;53.400;12.486;2024-01-16T00:10:29;0.20;1.00
13245;DHT22;6689;53.400;12.486;2024-01-16T00:12:57;0.10;1.00
13245;DHT22;6689;53.400;12.486;2024-01-16T00:15:25;0.00;1.00
13245;DHT22;6689;53.400;12.486;2024-01-16T00:17:52;-0.10;1.00
13245;DHT22;6689;53.400;12.486;2024-01-16T00:20:20;-0.20;1.00
13245;DHT22;6689;53.400;12.486;2024-01-16T00:22:49;-0.20;1.00
13245;DHT22;6689;53.400;12.486;2024-01-16T00:25:17;-0.20;1.00
13245;DHT22;6689;53.400;12.486;2024-01-16T00:27:47;-0.20;1.00
13245;DHT22;6689;53.400;12.486;2024-01-16T00:30:15;-0.30;1.00
13245;DHT22;6689;53.400;12.486;2024-01-16T00:32:42;-0.30;1.00
13245;DHT22;6689;53.400;12.486;2024-01-16T00:35:10;-0.40;1.00
13245;DHT22;6689;53.400;12.486;2024-01-16T00:37:37;-0.40;1.00
13245;DHT22;6689;53.400;12.486;2024-01-16T00:40:06;-0.40;1.00
13245;DHT22;6689;53.400;12.486;2024-01-16T00:42:36;-0.40;1.00
13245;DHT22;6689;53.400;12.486;2024-01-16T00:45:06;-0.20;1.00
13245;DHT22;6689;53.400;12.486;2024-01-16T00:47:35;-0.40;1.00
13245;DHT22;6689;53.400;12.486;2024-01-16T00:50:03;-0.30;1.00
13245;DHT22;6689;53.400;12.486;2024-01-16T00:52:30;-0.30;1.00
13245;DHT22;6689;53.400;12.486;2024-01-16T00:54:58;-0.30;1.00
13245;DHT22;6689;53.400;12.486;2024-01-16T00:57:28;-0.30;1.00
13245;DHT22;6689;53.400;12.486;2024-01-16T00:59:55;-0.20;1.00
13245;DHT22;6689;53.400;12.486;2024-01-16T01:02:24;-0.20;1.00
13245;DHT22;6689;53.400;12.486;2024-01-16T01:04:51;-0.20;1.00
13245;DHT22;6689;53.400;12.486;2024-01-16T01:07:18;-0.20;1.00
13245;DHT22;6689;53.400;12.486;2024-01-16T01:09:46;-0.20;1.00
13245;DHT22;6689;53.400;12.486;2024-01-16T01:12:13;-0.40;1.00
13245;DHT22;6689;53.400;12.486;2024-01-16T01:14:40;-0.40;1.00
13245;DHT22;6689;53.400;12.486;2024-01-16T01:17:08;-0.30;1.00
13245;DHT22;6689;53.400;12.486;2024-01-16T01:19:37;-0.30;1.00
13245;DHT22;6689;53.400;12.486;2024-01-16T01:22:04;-0.40;1.00
13245;DHT22;6689;53.400;12.486;2024-01-16T01:24:32;-0.30;1.00
13245;DHT22;6689;53.400;12.486;2024-01-16T01:27:00;-0.30;1.00
13245;DHT22;6689;53.400;12.486;2024-01-16T01:29:28;0.00;1.00
13245;DHT22;6689;53.400;12.486;2024-01-16T01:31:55;-0.30;1.00
13245;DHT22;6689;53.400;12.486;2024-01-16T01:34:24;-0.20;1.00
13245;DHT22;6689;53.400;12.486;2024-01-16T01:36:54;-0.30;1.00
13245;DHT22;6689;53.400;12.486;2024-01-16T01:39:23;-0.20;1.00
13245;DHT22;6689;53.400;12.486;2024-01-16T01:41:50;0.10;1.00
13245;DHT22;6689;53.400;12.486;2024-01-16T01:44:17;-0.30;1.00
13245;DHT22;6689;53.400;12.486;2024-01-16T01:46:45;-0.30;1.00
13245;DHT22;6689;53.400;12.486;2024-01-16T01:49:18;-0.30;1.00
13245;DHT22;6689;53.400;12.486;2024-01-16T01:51:45;-0.50;19.50
13245;DHT22;6689;53.400;12.486;2024-01-16T01:54:17;-0.40;12.50
13245;DHT22;6689;53.400;12.486;2024-01-16T01:56:47;-0.40;13.00
13245;DHT22;6689;53.400;12.486;2024-01-16T01:59:17;-0.50;51.60
13245;DHT22;6689;53.400;12.486;2024-01-16T02:01:45;-0.50;68.80
13245;DHT22;6689;53.400;12.486;2024-01-16T02:04:14;-0.40;99.90
13245;DHT22;6689;53.400;12.486;2024-01-16T02:06:43;-0.50;56.20
13245;DHT22;6689;53.400;12.486;2024-01-16T02:09:11;-0.40;36.40
13245;DHT22;6689;53.400;12.486;2024-01-16T02:11:40;-0.10;24.20
13245;DHT22;6689;53.400;12.486;2024-01-16T02:14:08;-0.30;12.30
13245;DHT22;6689;53.400;12.486;2024-01-16T02:16:38;-0.30;3.50
13245;DHT22;6689;53.400;12.486;2024-01-16T02:19:05;-0.40;26.60
13245;DHT22;6689;53.400;12.486;2024-01-16T02:21:37;-0.40;15.20
13245;DHT22;6689;53.400;12.486;2024-01-16T02:24:08;-0.30;47.40
13245;DHT22;6689;53.400;12.486;2024-01-16T02:26:37;-0.40;61.50
13245;DHT22;6689;53.400;12.486;2024-01-16T02:29:04;-0.30;49.20
13245;DHT22;6689;53.400;12.486;2024-01-16T02:31:31;-0.30;23.30
13245;DHT22;6689;53.400;12.486;2024-01-16T02:33:59;-0.30;9.60
13245;DHT22;6689;53.400;12.486;2024-01-16T02:36:26;-0.20;31.20
13245;DHT22;6689;53.400;12.486;2024-01-16T02:38:55;-0.30;29.70
13245;DHT22;6689;53.400;12.486;2024-01-16T02:41:23;-0.20;20.90
13245;DHT22;6689;53.400;12.486;2024-01-16T02:43:51;-0.20;35.70
13245;DHT22;6689;53.400;12.486;2024-01-16T02:46:18;-0.30;37.00
13245;DHT22;6689;53.400;12.486;2024-01-16T02:48:45;-0.20;14.20
13245;DHT22;6689;53.400;12.486;2024-01-16T02:51:14;-0.30;2.60
13245;DHT22;6689;53.400;12.486;2024-01-16T02:53:42;-0.20;26.50
13245;DHT22;6689;53.400;12.486;2024-01-16T02:56:10;-0.30;29.20
13245;DHT22;6689;53.400;12.486;2024-01-16T02:58:38;-0.30;27.90
13245;DHT22;6689;53.400;12.486;2024-01-16T03:01:06;-0.30;23.50
13245;DHT22;6689;53.400;12.486;2024-01-16T03:03:33;-0.20;19.90
13245;DHT22;6689;53.400;12.486;2024-01-16T03:06:02;-0.30;18.30
13245;DHT22;6689;53.400;12.486;2024-01-16T03:08:30;-0.10;12.30
13245;DHT22;6689;53.400;12.486;2024-01-16T03:10:57;-0.30;15.30
13245;DHT22;6689;53.400;12.486;2024-01-16T03:13:24;-0.20;21.80
13245;DHT22;6689;53.400;12.486;2024-01-16T03:15:53;-0.20;17.90
13245;DHT22;6689;53.400;12.486;2024-01-16T03:18:22;-0.10;17.20
13245;DHT22;6689;53.400;12.486;2024-01-16T03:20:49;-0.30;17.80
13245;DHT22;6689;53.400;12.486;2024-01-16T03:23:16;-0.20;18.90
13245;DHT22;6689;53.400;12.486;2024-01-16T03:25:43;-0.20;21.70
13245;DHT22;6689;53.400;12.486;2024-01-16T03:28:10;-0.30;33.20
13245;DHT22;6689;53.400;12.486;2024-01-16T03:30:38;-0.30;41.80
13245;DHT22;6689;53.400;12.486;2024-01-16T03:33:07;-0.30;58.00
13245;DHT22;6689;53.400;12.486;2024-01-16T03:35:34;-0.30;69.90
13245;DHT22;6689;53.400;12.486;2024-01-16T03:38:03;-0.40;75.60
13245;DHT22;6689;53.400;12.486;2024-01-16T03:40:31;-0.40;72.30
13245;DHT22;6689;53.400;12.486;2024-01-16T03:43:00;-0.40;87.20
13245;DHT22;6689;53.400;12.486;2024-01-16T03:45:27;-0.30;82.70
13245;DHT22;6689;53.400;12.486;2024-01-16T03:47:55;-0.30;95.10
13245;DHT22;6689;53.400;12.486;2024-01-16T03:50:24;-0.30;56.30
13245;DHT22;6689;53.400;12.486;2024-01-16T03:52:51;-0.20;55.10
13245;DHT22;6689;53.400;12.486;2024-01-16T03:55:19;-0.30;50.60
13245;DHT22;6689;53.400;12.486;2024-01-16T03:57:47;-0.20;40.40
13245;DHT22;6689;53.400;12.486;2024-01-16T04:00:14;-0.30;52.40
13245;DHT22;6689;53.400;12.486;2024-01-16T04:02:42;-0.30;40.10
13245;DHT22;6689;53.400;12.486;2024-01-16T04:05:09;-0.30;76.90
13245;DHT22;6689;53.400;12.486;2024-01-16T04:07:38;-0.20;56.90
13245;DHT22;6689;53.400;12.486;2024-01-16T04:10:06;-0.20;52.80
13245;DHT22;6689;53.400;12.486;2024-01-16T04:12:34;-0.20;61.50
13245;DHT22;6689;53.400;12.486;2024-01-16T04:15:04;-0.20;46.20
13245;DHT22;6689;53.400;12.486;2024-01-16T04:17:31;-0.20;31.70
13245;DHT22;6689;53.400;12.486;2024-01-16T04:19:59;0.00;32.20
13245;DHT22;6689;53.400;12.486;2024-01-16T04:22:26;-0.20;17.40
13245;DHT22;6689;53.400;12.486;2024-01-16T04:24:55;-0.20;12.90
13245;DHT22;6689;53.400;12.486;2024-01-16T04:27:22;-0.20;10.70
13245;DHT22;6689;53.400;12.486;2024-01-16T04:29:50;-0.10;9.50
13245;DHT22;6689;53.400;12.486;2024-01-16T04:32:17;-0.20;10.40
13245;DHT22;6689;53.400;12.486;2024-01-16T04:34:45;-0.20;12.30
13245;DHT22;6689;53.400;12.486;2024-01-16T04:37:13;-0.10;8.50
13245;DHT22;6689;53.400;12.486;2024-01-16T04:39:40;-0.10;2.50
13245;DHT22;6689;53.400;12.486;2024-01-16T04:42:09;-0.10;1.00
13245;DHT22;6689;53.400;12.486;2024-01-16T04:44:37;-0.10;1.00
13245;DHT22;6689;53.400;12.486;2024-01-16T04:47:05;-0.20;7.00
13245;DHT22;6689;53.400;12.486;2024-01-16T04:49:33;-0.20;15.50
13245;DHT22;6689;53.400;12.486;2024-01-16T04:52:00;-0.20;20.40
13245;DHT22;6689;53.400;12.486;2024-01-16T04:54:29;-0.20;20.20
13245;DHT22;6689;53.400;12.486;2024-01-16T04:56:58;-0.30;31.50
13245;DHT22;6689;53.400;12.486;2024-01-16T04:59:25;-0.30;22.50
13245;DHT22;6689;53.400;12.486;2024-01-16T05:01:53;-0.30;24.90
13245;DHT22;6689;53.400;12.486;2024-01-16T05:04:21;-0.30;32.50
13245;DHT22;6689;53.400;12.486;2024-01-16T05:06:50;-0.30;36.30
13245;DHT22;6689;53.400;12.486;2024-01-16T05:09:18;-0.30;33.50
13245;DHT22;6689;53.400;12.486;2024-01-16T05:11:47;-0.40;35.10
13245;DHT22;6689;53.400;12.486;2024-01-16T05:14:15;-0.30;39.00
13245;DHT22;6689;53.400;12.486;2024-01-16T05:16:43;-0.40;31.60
13245;DHT22;6689;53.400;12.486;2024-01-16T05:19:11;-0.40;20.40
13245;DHT22;6689;53.400;12.486;2024-01-16T05:21:40;-0.60;85.20
13245;DHT22;6689;53.400;12.486;2024-01-16T05:24:08;-0.50;99.90
13245;DHT22;6689;53.400;12.486;2024-01-16T05:26:37;-0.50;99.90
13245;DHT22;6689;53.400;12.486;2024-01-16T05:29:04;-0.40;94.10
13245;DHT22;6689;53.400;12.486;2024-01-16T05:31:32;-0.40;94.90
13245;DHT22;6689;53.400;12.486;2024-01-16T05:34:01;-0.40;78.30
13245;DHT22;6689;53.400;12.486;2024-01-16T05:36:30;-0.40;78.40
13245;DHT22;6689;53.400;12.486;2024-01-16T05:38:57;-0.40;65.90
13245;DHT22;6689;53.400;12.486;2024-01-16T05:41:24;-0.40;44.30
13245;DHT22;6689;53.400;12.486;2024-01-16T05:43:52;-0.40;71.90
13245;DHT22;6689;53.400;12.486;2024-01-16T05:46:19;-0.40;56.80
13245;DHT22;6689;53.400;12.486;2024-01-16T05:48:46;-0.40;65.90
13245;DHT22;6689;53.400;12.486;2024-01-16T05:51:14;-0.40;70.20
13245;DHT22;6689;53.400;12.486;2024-01-16T05:53:42;-0.40;70.00
13245;DHT22;6689;53.400;12.486;2024-01-16T05:56:09;-0.40;71.10
13245;DHT22;6689;53.400;12.486;2024-01-16T05:58:36;-0.40;61.70
13245;DHT22;6689;53.400;12.486;2024-01-16T06:01:05;-0.50;70.80
13245;DHT22;6689;53.400;12.486;2024-01-16T06:03:32;-0.50;99.90
13245;DHT22;6689;53.400;12.486;2024-01-16T06:05:59;-0.40;98.20
13245;DHT22;6689;53.400;12.486;2024-01-16T06:08:28;-0.40;90.90
13245;DHT22;6689;53.400;12.486;2024-01-16T06:10:56;-0.40;73.30
13245;DHT22;6689;53.400;12.486;2024-01-16T06:13:25;-0.50;79.30
13245;DHT22;6689;53.400;12.486;2024-01-16T06:15:52;-0.40;84.10
13245;DHT22;6689;53.400;12.486;2024-01-16T06:18:20;-0.50;92.70
13245;DHT22;6689;53.400;12.486;2024-01-16T06:20:47;-0.50;97.90
13245;DHT22;6689;53.400;12.486;2024-01-16T06:23:16;-0.40;96.20
13245;DHT22;6689;53.400;12.486;2024-01-16T06:25:45;-0.50;91.50
13245;DHT22;6689;53.400;12.486;2024-01-16T06:28:12;-0.50;95.50
13245;DHT22;6689;53.400;12.486;2024-01-16T06:30:40;-0.50;99.90
13245;DHT22;6689;53.400;12.486;2024-01-16T06:33:09;-0.50;99.90
13245;DHT22;6689;53.400;12.486;2024-01-16T06:35:37;-0.50;99.90
13245;DHT22;6689;53.400;12.486;2024-01-16T06:38:06;-0.50;99.90
13245;DHT22;6689;53.400;12.486;2024-01-16T06:40:33;-0.50;99.90
13245;DHT22;6689;53.400;12.486;2024-01-16T06:43:05;-0.60;99.90
13245;DHT22;6689;53.400;12.486;2024-01-16T06:45:33;-0.50;99.90
13245;DHT22;6689;53.400;12.486;2024-01-16T06:48:00;-0.40;99.90
13245;DHT22;6689;53.400;12.486;2024-01-16T06:50:27;-0.50;99.90
13245;DHT22;6689;53.400;12.486;2024-01-16T06:52:55;-0.50;99.90
13245;DHT22;6689;53.400;12.486;2024-01-16T06:55:22;-0.20;99.90
13245;DHT22;6689;53.400;12.486;2024-01-16T06:57:50;-0.60;99.90
13245;DHT22;6689;53.400;12.486;2024-01-16T07:00:19;-0.50;99.90
13245;DHT22;6689;53.400;12.486;2024-01-16T07:02:49;-0.50;99.90
13245;DHT22;6689;53.400;12.486;2024-01-16T07:05:20;-0.40;99.90
13245;DHT22;6689;53.400;12.486;2024-01-16T07:07:47;-0.50;99.90
13245;DHT22;6689;53.400;12.486;2024-01-16T07:10:14;-0.50;99.90
13245;DHT22;6689;53.400;12.486;2024-01-16T07:12:45;-0.50;99.90
13245;DHT22;6689;53.400;12.486;2024-01-16T07:15:13;-0.50;99.90
13245;DHT22;6689;53.400;12.486;2024-01-16T07:17:42;-0.50;99.90
13245;DHT22;6689;53.400;12.486;2024-01-16T07:20:10;-0.50;99.90
13245;DHT22;6689;53.400;12.486;2024-01-16T07:22:37;-0.40;99.90
13245;DHT22;6689;53.400;12.486;2024-01-16T07:25:05;-0.40;99.90
13245;DHT22;6689;53.400;12.486;2024-01-16T07:27:32;-0.40;99.90
13245;DHT22;6689;53.400;12.486;2024-01-16T07:29:59;-0.40;99.90
13245;DHT22;6689;53.400;12.486;2024-01-16T07:32:26;-0.40;99.90
13245;DHT22;6689;53.400;12.486;2024-01-16T07:34:55;-0.40;99.90
13245;DHT22;6689;53.400;12.486;2024-01-16T07:37:23;-0.40;99.90
13245;DHT22;6689;53.400;12.486;2024-01-16T07:39:51;-0.30;99.90
13245;DHT22;6689;53.400;12.486;2024-01-16T07:42:19;-0.40;99.90
13245;DHT22;6689;53.400;12.486;2024-01-16T07:44:47;-0.30;99.90
13245;DHT22;6689;53.400;12.486;2024-01-16T07:47:15;-0.30;99.90
13245;DHT22;6689;53.400;12.486;2024-01-16T07:49:43;-0.30;99.90
13245;DHT22;6689;53.400;12.486;2024-01-16T07:52:12;-0.30;99.90
13245;DHT22;6689;53.400;12.486;2024-01-16T07:54:39;-0.30;99.90
13245;DHT22;6689;53.400;12.486;2024-01-16T07:57:06;-0.30;99.90
13245;DHT22;6689;53.400;12.486;2024-01-16T07:59:33;-0.20;99.90
13245;DHT22;6689;53.400;12.486;2024-01-16T08:02:00;-0.10;99.90
13245;DHT22;6689;53.400;12.486;2024-01-16T08:04:30;-0.10;99.90
13245;DHT22;6689;53.400;12.486;2024-01-16T08:06:57;-0.10;99.90
13245;DHT22;6689;53.400;12.486;2024-01-16T08:09:26;-0.10;99.90
13245;DHT22;6689;53.400;12.486;2024-01-16T08:11:53;-0.10;99.90
13245;DHT22;6689;53.400;12.486;2024-01-16T08:14:21;-0.10;99.90
13245;DHT22;6689;53.400;12.486;2024-01-16T08:16:48;0.00;99.90
13245;DHT22;6689;53.400;12.486;2024-01-16T08:19:15;-0.10;99.90
13245;DHT22;6689;53.400;12.486;2024-01-16T08:21:42;-0.10;99.90
13245;DHT22;6689;53.400;12.486;2024-01-16T08:24:10;-0.10;99.90
13245;DHT22;6689;53.400;12.486;2024-01-16T08:26:39;0.00;99.90
13245;DHT22;6689;53.400;12.486;2024-01-16T08:29:06;0.00;99.90
13245;DHT22;6689;53.400;12.486;2024-01-16T08:31:34;0.00;99.90
13245;DHT22;6689;53.400;12.486;2024-01-16T08:34:01;0.10;99.90
13245;DHT22;6689;53.400;12.486;2024-01-16T08:36:28;0.30;99.90
13245;DHT22;6689;53.400;12.486;2024-01-16T08:38:55;0.30;99.90
13245;DHT22;6689;53.400;12.486;2024-01-16T08:41:22;0.30;99.90
13245;DHT22;6689;53.400;12.486;2024-01-16T08:43:52;0.40;99.90
13245;DHT22;6689;53.400;12.486;2024-01-16T08:46:19;0.40;99.90
13245;DHT22;6689;53.400;12.486;2024-01-16T08:48:47;0.40;99.90
13245;DHT22;6689;53.400;12.486;2024-01-16T08:51:14;0.40;99.90
13245;DHT22;6689;53.400;12.486;2024-01-16T08:53:41;0.40;99.90
13245;DHT22;6689;53.400;12.486;2024-01-16T08:56:08;0.50;99.90
13245;DHT22;6689;53.400;12.486;2024-01-16T08:58:38;0.50;99.90
13245;DHT22;6689;53.400;12.486;2024-01-16T09:01:07;0.80;92.60
13245;DHT22;6689;53.400;12.486;2024-01-16T09:03:36;0.50;99.90
13245;DHT22;6689;53.400;12.486;2024-01-16T09:06:03;0.50;99.90
13245;DHT22;6689;53.400;12.486;2024-01-16T09:08:30;0.50;99.90
13245;DHT22;6689;53.400;12.486;2024-01-16T09:10:59;0.50;99.90
13245;DHT22;6689;53.400;12.486;2024-01-16T09:13:29;0.50;99.90
13245;DHT22;6689;53.400;12.486;2024-01-16T09:15:56;0.60;99.90
13245;DHT22;6689;53.400;12.486;2024-01-16T09:18:25;0.60;99.90
13245;DHT22;6689;53.400;12.486;2024-01-16T09:20:52;0.60;91.70
13245;DHT22;6689;53.400;12.486;2024-01-16T09:23:20;0.70;79.40
13245;DHT22;6689;53.400;12.486;2024-01-16T09:25:48;0.70;64.80
13245;DHT22;6689;53.400;12.486;2024-01-16T09:28:18;0.80;68.20
13245;DHT22;6689;53.400;12.486;2024-01-16T09:30:45;0.80;50.90
13245;DHT22;6689;53.400;12.486;2024-01-16T09:33:12;0.90;42.70
13245;DHT22;6689;53.400;12.486;2024-01-16T09:35:43;0.90;34.20
13245;DHT22;6689;53.400;12.486;2024-01-16T09:38:10;1.00;32.90
13245;DHT22;6689;53.400;12.486;2024-01-16T09:40:37;1.00;33.20
13245;DHT22;6689;53.400;12.486;2024-01-16T09:43:04;1.00;29.70
13245;DHT22;6689;53.400;12.486;2024-01-16T09:45:37;1.00;28.80
13245;DHT22;6689;53.400;12.486;2024-01-16T09:48:05;1.00;39.80
13245;DHT22;6689;53.400;12.486;2024-01-16T09:50:35;1.00;24.90
13245;DHT22;6689;53.400;12.486;2024-01-16T09:53:04;1.10;27.10
13245;DHT22;6689;53.400;12.486;2024-01-16T09:55:32;1.10;18.00
13245;DHT22;6689;53.400;12.486;2024-01-16T09:58:00;1.10;9.90
13245;DHT22;6689;53.400;12.486;2024-01-16T10:00:27;1.20;4.30
13245;DHT22;6689;53.400;12.486;2024-01-16T10:02:55;1.20;6.60
13245;DHT22;6689;53.400;12.486;2024-01-16T10:05:24;1.30;4.90
13245;DHT22;6689;53.400;12.486;2024-01-16T10:07:52;1.30;1.00
13245;DHT22;6689;53.400;12.486;2024-01-16T10:10:21;1.30;2.10
13245;DHT22;6689;53.400;12.486;2024-01-16T10:12:50;1.30;1.00
13245;DHT22;6689;53.400;12.486;2024-01-16T10:15:20;1.40;1.00
13245;DHT22;6689;53.400;12.486;2024-01-16T10:17:48;1.50;1.00
13245;DHT22;6689;53.400;12.486;2024-01-16T10:20:16;1.50;1.00
13245;DHT22;6689;53.400;12.486;2024-01-16T10:22:52;1.50;1.00
13245;DHT22;6689;53.400;12.486;2024-01-16T10:25:21;1.50;1.00
13245;DHT22;6689;53.400;12.486;2024-01-16T10:27:49;1.60;1.00
13245;DHT22;6689;53.400;12.486;2024-01-16T10:30:30;1.60;1.00
13245;DHT22;6689;53.400;12.486;2024-01-16T10:33:12;1.70;1.00
13245;DHT22;6689;53.400;12.486;2024-01-16T10:35:40;1.60;1.00
13245;DHT22;6689;53.400;12.486;2024-01-16T10:38:08;1.80;1.00
13245;DHT22;6689;53.400;12.486;2024-01-16T10:40:36;1.70;1.00
13245;DHT22;6689;53.400;12.486;2024-01-16T10:43:04;1.70;1.00
13245;DHT22;6689;53.400;12.486;2024-01-16T10:45:33;1.70;1.00
13245;DHT22;6689;53.400;12.486;2024-01-16T10:48:04;1.70;1.00
13245;DHT22;6689;53.400;12.486;2024-01-16T10:50:34;1.60;1.00
13245;DHT22;6689;53.400;12.486;2024-01-16T10:53:04;1.50;1.00
13245;DHT22;6689;53.400;12.486;2024-01-16T10:55:37;1.60;1.00
13245;DHT22;6689;53.400;12.486;2024-01-16T10:58:07;1.50;2.80
13245;DHT22;6689;53.400;12.486;2024-01-16T11:00:37;1.50;7.10
13245;DHT22;6689;53.400;12.486;2024-01-16T11:03:07;1.40;2.10
13245;DHT22;6689;53.400;12.486;2024-01-16T11:05:37;1.40;7.80
13245;DHT22;6689;53.400;12.486;2024-01-16T11:08:08;1.40;4.80
13245;DHT22;6689;53.400;12.486;2024-01-16T11:10:38;1.30;20.10
13245;DHT22;6689;53.400;12.486;2024-01-16T11:13:06;1.30;35.10
13245;DHT22;6689;53.400;12.486;2024-01-16T11:15:35;1.30;38.40
13245;DHT22;6689;53.400;12.486;2024-01-16T11:18:06;1.30;55.20
13245;DHT22;6689;53.400;12.486;2024-01-16T11:20:35;1.30;60.40
13245;DHT22;6689;53.400;12.486;2024-01-16T11:23:04;1.20;92.40
13245;DHT22;6689;53.400;12.486;2024-01-16T11:25:32;1.20;99.90
13245;DHT22;6689;53.400;12.486;2024-01-16T11:28:10;1.30;99.90
13245;DHT22;6689;53.400;12.486;2024-01-16T11:30:41;1.20;99.90
13245;DHT22;6689;53.400;12.486;2024-01-16T11:33:42;1.20;99.90
13245;DHT22;6689;53.400;12.486;2024-01-16T11:36:43;1.20;99.90
13245;DHT22;6689;53.400;12.486;2024-01-16T11:39:17;1.20;99.90
13245;DHT22;6689;53.400;12.486;2024-01-16T11:41:51;1.20;99.90
13245;DHT22;6689;53.400;12.486;2024-01-16T11:44:42;1.20;99.90
13245;DHT22;6689;53.400;12.486;2024-01-16T11:47:09;1.40;99.90
13245;DHT22;6689;53.400;12.486;2024-01-16T11:49:37;1.40;99.90
13245;DHT22;6689;53.400;12.486;2024-01-16T11:52:04;1.40;99.90
13245;DHT22;6689;53.400;12.486;2024-01-16T11:54:34;1.40;99.90
13245;DHT22;6689;53.400;12.486;2024-01-16T11:57:33;1.50;99.90
13245;DHT22;6689;53.400;12.486;2024-01-16T12:00:06;1.50;99.90
13245;DHT22;6689;53.400;12.486;2024-01-16T12:02:51;1.50;99.90
13245;DHT22;6689;53.400;12.486;2024-01-16T12:05:19;1.50;99.90
13245;DHT22;6689;53.400;12.486;2024-01-16T12:07:47;1.50;99.90
13245;DHT22;6689;53.400;12.486;2024-01-16T12:10:16;1.60;99.90
13245;DHT22;6689;53.400;12.486;2024-01-16T12:12:45;1.60;99.90
13245;DHT22;6689;53.400;12.486;2024-01-16T12:15:16;1.70;99.90
13245;DHT22;6689;53.400;12.486;2024-01-16T12:17:54;1.70;99.90
13245;DHT22;6689;53.400;12.486;2024-01-16T12:20:22;1.80;99.90
13245;DHT22;6689;53.400;12.486;2024-01-16T12:22:55;1.70;99.90
13245;DHT22;6689;53.400;12.486;2024-01-16T12:25:23;1.80;99.90
13245;DHT22;6689;53.400;12.486;2024-01-16T12:27:58;1.80;99.90
13245;DHT22;6689;53.400;12.486;2024-01-16T12:30:33;1.80;99.90
13245;DHT22;6689;53.400;12.486;2024-01-16T12:33:08;1.80;99.90
13245;DHT22;6689;53.400;12.486;2024-01-16T12:35:36;1.80;99.90
13245;DHT22;6689;53.400;12.486;2024-01-16T12:38:05;1.80;99.90
13245;DHT22;6689;53.400;12.486;2024-01-16T12:40:35;1.80;99.90
13245;DHT22;6689;53.400;12.486;2024-01-16T12:43:03;1.80;99.90
13245;DHT22;6689;53.400;12.486;2024-01-16T12:45:33;1.80;99.90
13245;DHT22;6689;53.400;12.486;2024-01-16T12:48:03;1.80;99.90
13245;DHT22;6689;53.400;12.486;2024-01-16T12:50:32;1.80;99.90
13245;DHT22;6689;53.400;12.486;2024-01-16T12:53:04;1.80;99.90
13245;DHT22;6689;53.400;12.486;2024-01-16T12:55:33;1.80;99.90
13245;DHT22;6689;53.400;12.486;2024-01-16T12:58:18;1.80;99.90
13245;DHT22;6689;53.400;12.486;2024-01-16T13:00:47;1.80;99.90
13245;DHT22;6689;53.400;12.486;2024-01-16T13:03:18;1.90;99.90
13245;DHT22;6689;53.400;12.486;2024-01-16T13:05:54;1.80;99.90
13245;DHT22;6689;53.400;12.486;2024-01-16T13:08:21;1.90;99.90
13245;DHT22;6689;53.400;12.486;2024-01-16T13:11:02;1.90;99.90
13245;DHT22;6689;53.400;12.486;2024-01-16T13:13:30;1.80;99.90
13245;DHT22;6689;53.400;12.486;2024-01-16T13:16:00;1.80;99.90
13245;DHT22;6689;53.400;12.486;2024-01-16T13:18:29;1.80;99.90
13245;DHT22;6689;53.400;12.486;2024-01-16T13:20:57;1.70;99.90
13245;DHT22;6689;53.400;12.486;2024-01-16T13:23:25;1.70;99.90
13245;DHT22;6689;53.400;12.486;2024-01-16T13:25:54;1.70;99.90
13245;DHT22;6689;53.400;12.486;2024-01-16T13:28:23;1.70;99.90
13245;DHT22;6689;53.400;12.486;2024-01-16T13:30:50;1.70;99.90
13245;DHT22;6689;53.400;12.486;2024-01-16T13:33:19;1.70;99.90
13245;DHT22;6689;53.400;12.486;2024-01-16T13:35:47;1.70;99.90
13245;DHT22;6689;53.400;12.486;2024-01-16T13:38:15;1.80;99.90
13245;DHT22;6689;53.400;12.486;2024-01-16T13:40:43;1.70;99.90
13245;DHT22;6689;53.400;12.486;2024-01-16T13:43:10;1.80;99.90
13245;DHT22;6689;53.400;12.486;2024-01-16T13:45:38;1.70;99.90
13245;DHT22;6689;53.400;12.486;2024-01-16T13:48:07;1.80;99.90
13245;DHT22;6689;53.400;12.486;2024-01-16T13:50:36;1.70;99.90
13245;DHT22;6689;53.400;12.486;2024-01-16T13:53:04;1.90;99.90
13245;DHT22;6689;53.400;12.486;2024-01-16T13:55:32;1.80;99.90
13245;DHT22;6689;53.400;12.486;2024-01-16T13:58:00;1.80;99.90
13245;DHT22;6689;53.400;12.486;2024-01-16T14:00:30;1.80;99.90
13245;DHT22;6689;53.400;12.486;2024-01-16T14:02:57;1.80;99.90
13245;DHT22;6689;53.400;12.486;2024-01-16T14:05:25;1.80;99.90
13245;DHT22;6689;53.400;12.486;2024-01-16T14:07:53;1.90;99.90
13245;DHT22;6689;53.400;12.486;2024-01-16T14:10:21;1.80;99.90
13245;DHT22;6689;53.400;12.486;2024-01-16T14:12:51;1.90;99.90
13245;DHT22;6689;53.400;12.486;2024-01-16T14:15:19;1.80;99.90
13245;DHT22;6689;53.400;12.486;2024-01-16T14:17:50;1.80;99.90
13245;DHT22;6689;53.400;12.486;2024-01-16T14:20:18;1.80;99.90
13245;DHT22;6689;53.400;12.486;2024-01-16T14:22:49;1.80;99.90
13245;DHT22;6689;53.400;12.486;2024-01-16T14:25:19;1.80;99.90
13245;DHT22;6689;53.400;12.486;2024-01-16T14:27:57;1.70;99.90
13245;DHT22;6689;53.400;12.486;2024-01-16T14:30:26;1.80;99.90
13245;DHT22;6689;53.400;12.486;2024-01-16T14:32:54;1.80;99.90
13245;DHT22;6689;53.400;12.486;2024-01-16T14:35:23;1.80;99.90
13245;DHT22;6689;53.400;12.486;2024-01-16T14:37:51;1.80;99.90
13245;DHT22;6689;53.400;12.486;2024-01-16T14:40:20;1.80;99.90
13245;DHT22;6689;53.400;12.486;2024-01-16T14:42:51;1.70;99.90
13245;DHT22;6689;53.400;12.486;2024-01-16T14:45:19;1.80;99.90
13245;DHT22;6689;53.400;12.486;2024-01-16T14:47:48;1.80;99.90
13245;DHT22;6689;53.400;12.486;2024-01-16T14:50:16;1.70;99.90
13245;DHT22;6689;53.400;12.486;2024-01-16T14:52:44;1.80;99.90
13245;DHT22;6689;53.400;12.486;2024-01-16T14:55:12;1.80;99.90
13245;DHT22;6689;53.400;12.486;2024-01-16T14:57:41;1.80;99.90
13245;DHT22;6689;53.400;12.486;2024-01-16T15:00:11;1.70;99.90
13245;DHT22;6689;53.400;12.486;2024-01-16T15:02:45;1.70;99.90
13245;DHT22;6689;53.400;12.486;2024-01-16T15:05:14;1.70;99.90
13245;DHT22;6689;53.400;12.486;2024-01-16T15:07:42;1.70;99.90
13245;DHT22;6689;53.400;12.486;2024-01-16T15:10:10;1.70;99.90
13245;DHT22;6689;53.400;12.486;2024-01-16T15:12:38;1.70;99.90
13245;DHT22;6689;53.400;12.486;2024-01-16T15:15:09;1.70;99.90
13245;DHT22;6689;53.400;12.486;2024-01-16T15:17:39;1.80;99.90
13245;DHT22;6689;53.400;12.486;2024-01-16T15:20:07;1.70;99.90
13245;DHT22;6689;53.400;12.486;2024-01-16T15:22:37;1.80;99.90
13245;DHT22;6689;53.400;12.486;2024-01-16T15:25:06;1.70;99.90
13245;DHT22;6689;53.400;12.486;2024-01-16T15:27:34;1.70;99.90
13245;DHT22;6689;53.400;12.486;2024-01-16T15:30:02;1.70;99.90
13245;DHT22;6689;53.400;12.486;2024-01-16T15:32:44;1.70;99.90
13245;DHT22;6689;53.400;12.486;2024-01-16T15:35:11;1.60;99.90
13245;DHT22;6689;53.400;12.486;2024-01-16T15:37:38;1.60;99.90
13245;DHT22;6689;53.400;12.486;2024-01-16T15:40:08;1.70;99.90
13245;DHT22;6689;53.400;12.486;2024-01-16T15:42:37;1.60;99.90
13245;DHT22;6689;53.400;12.486;2024-01-16T15:45:05;1.70;99.90
13245;DHT22;6689;53.400;12.486;2024-01-16T15:47:33;1.60;99.90
13245;DHT22;6689;53.400;12.486;2024-01-16T15:50:02;1.60;99.90
13245;DHT22;6689;53.400;12.486;2024-01-16T15:52:30;1.60;99.90